Fecha, hora, temperatura, viento dirección y velocidad, humedad y presión.

  • 16-01-2019 17:00:00 | 12.40°C | Oeste |6.00 km/h | 71.00% | 1014.70 hPa
  • 16-01-2019 16:00:00 | 12.60°C | Oeste |6.00 km/h | 70.00% | 1014.50 hPa
  • 16-01-2019 15:00:00 | 12.70°C | Oeste |5.00 km/h | 69.00% | 1014.30 hPa
  • 16-01-2019 14:00:00 | 13.30°C | Noroeste |6.00 km/h | 71.00% | 1014.40 hPa
  • 16-01-2019 13:00:00 | 13.60°C | Nordeste |5.00 km/h | 74.00% | 1014.70 hPa
  • 16-01-2019 12:00:00 | 12.80°C | Norte |3.00 km/h | 77.00% | 1015.40 hPa
  • 16-01-2019 11:00:00 | 10.30°C | Oeste |8.00 km/h | 79.00% | 1016.10 hPa
  • 16-01-2019 10:00:00 | 9.00°C | Oeste |10.00 km/h | 80.00% | 1015.80 hPa
  • 16-01-2019 09:00:00 | 8.40°C | Sudoeste |12.00 km/h | 77.00% | 1015.30 hPa
  • 16-01-2019 08:00:00 | 7.60°C | Sudoeste |9.00 km/h | 77.00% | 1015.30 hPa
  • 16-01-2019 07:00:00 | 6.40°C | Oeste |16.00 km/h | 82.00% | 1015.10 hPa
  • 16-01-2019 06:00:00 | 5.80°C | Sudoeste |13.00 km/h | 85.00% | 1014.70 hPa
  • 16-01-2019 05:00:00 | 6.40°C | Oeste |16.00 km/h | 85.00% | 1014.90 hPa
  • 16-01-2019 04:00:00 | 5.60°C | Oeste |17.00 km/h | 87.00% | 1015.30 hPa
  • 16-01-2019 03:00:00 | 5.80°C | Oeste |18.00 km/h | 86.00% | 1015.40 hPa
  • 16-01-2019 02:00:00 | 5.90°C | Oeste |15.00 km/h | 86.00% | 1015.80 hPa
  • 16-01-2019 01:00:00 | 6.80°C | Sudoeste |15.00 km/h | 85.00% | 1016.20 hPa
  • 16-01-2019 00:00:00 | 6.80°C | Sudoeste |14.00 km/h | 85.00% | 1016.90 hPa
  • 15-01-2019 23:00:00 | 6.70°C | Sudoeste |14.00 km/h | 84.00% | 1017.10 hPa
  • 15-01-2019 22:00:00 | 6.80°C | Oeste |8.00 km/h | 83.00% | 1017.10 hPa
  • 15-01-2019 21:00:00 | 6.90°C | Oeste |5.00 km/h | 80.00% | 1017.30 hPa
  • 15-01-2019 20:00:00 | 7.50°C | Sudoeste |9.00 km/h | 78.00% | 1017.70 hPa
  • 15-01-2019 19:00:00 | 9.20°C | Sudoeste |6.00 km/h | 75.00% | 1017.70 hPa
  • 15-01-2019 18:00:00 | 10.50°C | Sur |4.00 km/h | 72.00% | 1017.80 hPa
    • diseño web asturias Información sobre el estado de las mareas, altura de la marejada, temperatura del agua y otros datos de Gijón en Asturias.

      Surf Gijón